Terminal Aerodrome Forecast
Issued by NWS

Home | Current Version | Previous Version | Graphics & Text | Print | Product List | Glossary On
Versions: 1 2 3 4 5 6 7 8 9 10 11 12 13 14 15 16 17 18 19 20 21 22 23 24 25 26 27 28 29 30 31 32 33 34 35 36 37 38 39 40 41 42 43 44 45 46 47 48 49 50
000
FTUS43 KGRB 200305 AAB
TAFATW
TAF AMD
KATW 200305Z 2003/2024 21003KT 1/4SM FG OVC002
      TEMPO 2004/2007 1/2SM FG
     FM200700 VRB03KT 1SM -RA BR OVC003
      TEMPO 2008/2012 1/2SM -FZRA OVC002
     FM201200 06003KT 3/4SM -RA BR OVC003
     FM201700 07006KT 3SM BR SCT004 OVC030=

USA.gov is the U.S. government's official web portal to all federal, state and local government web resources and services.